createdAt,value
2018-07-11T00:03:00.010Z,24.20
2018-07-11T00:07:43.601Z,24.30
2018-07-11T00:12:28.226Z,24.17
2018-07-11T00:17:15.397Z,24.06
2018-07-11T00:21:59.066Z,24.04
2018-07-11T00:26:42.585Z,23.96
2018-07-11T00:31:29.826Z,23.83
2018-07-11T00:36:13.353Z,23.93
2018-07-11T00:41:01.085Z,23.79
2018-07-11T00:45:44.601Z,23.76
2018-07-11T00:50:28.112Z,23.97
2018-07-11T00:55:11.637Z,23.78
2018-07-11T00:59:55.708Z,23.40
2018-07-11T01:04:40.362Z,23.49
2018-07-11T01:09:23.693Z,23.41
2018-07-11T01:14:07.063Z,23.32
2018-07-11T01:19:08.490Z,23.43
2018-07-11T01:23:52.240Z,23.41
2018-07-11T01:28:35.822Z,23.39
2018-07-11T01:33:20.474Z,23.47
2018-07-11T01:38:04.037Z,23.18
2018-07-11T01:42:50.889Z,23.36
2018-07-11T01:47:34.329Z,23.24
2018-07-11T01:52:28.728Z,23.24
2018-07-11T01:57:12.320Z,23.21
2018-07-11T02:01:59.259Z,23.42
2018-07-11T02:06:42.846Z,23.52
2018-07-11T02:11:31.580Z,23.48
2018-07-11T02:16:15.123Z,23.57
2018-07-11T02:21:02.527Z,23.60
2018-07-11T02:25:47.283Z,23.52
2018-07-11T02:30:33.960Z,23.26
2018-07-11T02:35:17.531Z,23.33
2018-07-11T02:40:01.124Z,23.21
2018-07-11T02:44:48.021Z,23.15
2018-07-11T02:49:31.557Z,23.17
2018-07-11T02:54:15.373Z,23.34
2018-07-11T02:58:58.762Z,23.34
2018-07-11T03:03:43.426Z,23.18
2018-07-11T03:08:35.023Z,23.00
2018-07-11T03:13:21.170Z,23.03
2018-07-11T03:18:05.319Z,23.11
2018-07-11T03:22:52.445Z,23.11
2018-07-11T03:27:36.076Z,23.14
2018-07-11T03:32:20.873Z,22.96
2018-07-11T03:37:04.458Z,22.95
2018-07-11T03:41:48.193Z,22.63
2018-07-11T03:46:31.980Z,22.81
2018-07-11T03:51:16.419Z,22.88
2018-07-11T03:56:00.014Z,22.77
2018-07-11T04:00:47.490Z,22.82
2018-07-11T04:05:31.091Z,22.92
2018-07-11T04:10:14.641Z,22.90
2018-07-11T04:14:58.305Z,22.98
2018-07-11T04:19:41.820Z,23.10
2018-07-11T04:24:25.927Z,22.87
2018-07-11T04:29:10.319Z,22.88
2018-07-11T04:33:54.009Z,23.11
2018-07-11T04:38:37.606Z,23.09
2018-07-11T04:43:23.413Z,23.10
2018-07-11T04:48:08.366Z,23.04
2018-07-11T04:52:51.885Z,22.82
2018-07-11T04:57:35.437Z,22.91
2018-07-11T05:02:19.267Z,22.87
2018-07-11T05:07:02.874Z,23.01
2018-07-11T05:11:47.625Z,23.08
2018-07-11T05:16:31.190Z,23.16
2018-07-11T05:21:17.982Z,23.20
2018-07-11T05:26:01.508Z,23.09
2018-07-11T05:30:45.320Z,23.13
2018-07-11T05:35:34.215Z,23.17
2018-07-11T05:40:18.692Z,23.20
2018-07-11T05:45:02.272Z,23.19
2018-07-11T05:49:45.762Z,23.19
2018-07-11T05:54:29.571Z,23.24
2018-07-11T05:59:13.188Z,23.30
2018-07-11T06:03:57.042Z,23.35
2018-07-11T06:08:40.584Z,23.38
2018-07-11T06:13:25.316Z,23.41
2018-07-11T06:18:09.381Z,23.48
2018-07-11T06:22:53.141Z,23.51
2018-07-11T06:27:36.779Z,23.52
2018-07-11T06:32:20.455Z,23.61
2018-07-11T06:37:04.047Z,23.64
2018-07-11T06:41:47.769Z,23.68
2018-07-11T06:46:31.319Z,23.77
2018-07-11T06:51:19.916Z,23.78
2018-07-11T06:56:03.480Z,23.81
2018-07-11T07:00:47.383Z,23.87
2018-07-11T07:05:31.281Z,23.92
2018-07-11T07:10:20.324Z,24.04
2018-07-11T07:15:05.255Z,24.06
2018-07-11T07:19:49.395Z,24.05
2018-07-11T07:24:33.571Z,24.15
2018-07-11T07:29:17.452Z,24.16
2018-07-11T07:34:04.317Z,24.08
2018-07-11T07:38:47.792Z,24.24
2018-07-11T07:43:31.614Z,24.22
2018-07-11T07:48:16.123Z,24.32
2018-07-11T07:52:59.885Z,24.50
2018-07-11T07:57:43.478Z,24.48
2018-07-11T08:02:28.095Z,24.40
2018-07-11T08:07:11.524Z,24.74
2018-07-11T08:11:56.245Z,24.48
2018-07-11T08:16:39.842Z,24.63
2018-07-11T08:21:23.616Z,24.88
2018-07-11T08:26:17.914Z,24.70
2018-07-11T08:31:53.355Z,25.07
2018-07-11T08:38:51.394Z,25.11
2018-07-11T08:45:54.015Z,24.90
2018-07-11T08:53:10.972Z,24.96
2018-07-11T08:58:21.312Z,25.09
2018-07-11T09:05:20.217Z,25.43
2018-07-11T09:12:25.493Z,25.32
2018-07-11T09:18:21.610Z,25.29
2018-07-11T09:23:23.030Z,25.51
2018-07-11T09:28:06.558Z,25.19
2018-07-11T09:32:50.097Z,25.15
2018-07-11T09:37:33.955Z,25.53
2018-07-11T09:42:18.747Z,25.69
2018-07-11T09:47:33.007Z,25.71
2018-07-11T09:52:20.555Z,25.71
2018-07-11T09:57:05.146Z,25.92
2018-07-11T10:01:52.274Z,26.02
2018-07-11T10:06:35.783Z,25.89
2018-07-11T10:11:22.491Z,25.94
2018-07-11T10:16:05.958Z,25.82
2018-07-11T10:20:50.635Z,25.72
2018-07-11T10:25:34.201Z,25.73
2018-07-11T10:30:18.686Z,25.58
2018-07-11T10:35:03.106Z,25.68
2018-07-11T10:39:47.825Z,25.59
2018-07-11T10:44:31.645Z,25.60
2018-07-11T10:49:23.253Z,25.85
2018-07-11T10:54:06.664Z,26.18
2018-07-11T10:58:50.436Z,26.12
2018-07-11T11:03:34.976Z,26.52
2018-07-11T11:08:18.519Z,26.21
2018-07-11T11:13:05.906Z,26.44
2018-07-11T11:17:49.382Z,26.87
2018-07-11T11:22:33.040Z,26.66
2018-07-11T11:27:16.573Z,26.91
2018-07-11T11:32:01.444Z,26.72
2018-07-11T11:36:44.885Z,26.97
2018-07-11T11:41:32.068Z,26.75
2018-07-11T11:46:15.571Z,26.70
2018-07-11T11:50:59.261Z,27.25
2018-07-11T11:55:43.925Z,27.00
2018-07-11T12:00:30.618Z,26.65
2018-07-11T12:05:14.253Z,26.58
2018-07-11T12:10:01.488Z,26.74
2018-07-11T12:14:45.108Z,26.79
2018-07-11T12:19:28.740Z,26.82
2018-07-11T12:24:12.348Z,26.65
2018-07-11T12:28:55.860Z,26.99
2018-07-11T12:33:39.449Z,27.57
2018-07-11T12:38:22.927Z,27.26
2018-07-11T12:43:07.021Z,26.95
2018-07-11T12:47:55.936Z,27.14
2018-07-11T12:52:39.636Z,26.93
2018-07-11T12:57:25.126Z,27.01
2018-07-11T13:02:09.717Z,27.45
2018-07-11T13:06:53.301Z,27.03
2018-07-11T13:11:37.900Z,27.26
2018-07-11T13:16:21.462Z,27.55
2018-07-11T13:21:05.301Z,27.87
2018-07-11T13:25:48.849Z,27.50
2018-07-11T13:30:32.430Z,28.35
2018-07-11T13:35:15.927Z,28.48
2018-07-11T13:40:04.875Z,28.43
2018-07-11T13:44:48.455Z,28.43
2018-07-11T13:49:32.245Z,28.16
2018-07-11T13:54:15.710Z,28.11
2018-07-11T13:58:59.144Z,28.01
2018-07-11T14:03:42.767Z,28.27
2018-07-11T14:08:26.189Z,28.19
2018-07-11T14:13:09.717Z,28.39
2018-07-11T14:17:53.306Z,28.07
2018-07-11T14:22:38.013Z,28.28
2018-07-11T14:27:22.683Z,28.34
2018-07-11T14:32:06.933Z,28.54
2018-07-11T14:36:50.512Z,28.30
2018-07-11T14:41:36.123Z,28.19
2018-07-11T14:46:19.701Z,28.19
2018-07-11T14:51:14.505Z,28.21
2018-07-11T14:55:57.836Z,28.04
2018-07-11T15:00:45.528Z,28.17
2018-07-11T15:05:29.548Z,28.10
2018-07-11T15:10:16.872Z,27.94
2018-07-11T15:15:00.340Z,28.19
2018-07-11T15:19:47.467Z,28.00
2018-07-11T15:24:30.982Z,27.86
2018-07-11T15:29:14.703Z,27.76
2018-07-11T15:33:58.230Z,27.82
2018-07-11T15:38:44.953Z,27.72
2018-07-11T15:43:30.284Z,27.74
2018-07-11T15:48:13.749Z,27.71
2018-07-11T15:52:57.722Z,27.72
2018-07-11T15:57:47.850Z,27.69
2018-07-11T16:02:33.755Z,27.78
2018-07-11T16:07:18.046Z,27.67
2018-07-11T16:12:05.156Z,27.75
2018-07-11T16:16:48.590Z,27.69
2018-07-11T16:21:33.118Z,27.70
2018-07-11T16:26:16.502Z,27.64
2018-07-11T16:31:10.306Z,27.57
2018-07-11T16:35:53.854Z,27.75
2018-07-11T16:40:38.431Z,27.70
2018-07-11T16:45:22.740Z,27.51
2018-07-11T16:50:12.110Z,27.65
2018-07-11T16:54:55.640Z,27.72
2018-07-11T16:59:48.902Z,27.73
2018-07-11T17:04:33.400Z,27.78
2018-07-11T17:09:16.955Z,27.77
2018-07-11T17:14:02.226Z,27.70
2018-07-11T17:18:48.991Z,27.71
2018-07-11T17:23:32.525Z,27.64
2018-07-11T17:28:15.978Z,27.64
2018-07-11T17:33:01.103Z,27.55
2018-07-11T17:37:44.590Z,27.46
2018-07-11T17:42:31.840Z,27.42
2018-07-11T17:47:15.284Z,27.42
2018-07-11T17:52:09.729Z,27.39
2018-07-11T17:56:59.123Z,27.29
2018-07-11T18:01:50.812Z,27.13
2018-07-11T18:07:16.098Z,27.03
2018-07-11T18:12:11.699Z,27.10
2018-07-11T18:16:59.810Z,26.73
2018-07-11T18:22:26.452Z,27.09
2018-07-11T18:28:37.126Z,27.13
2018-07-11T18:33:32.381Z,27.04
2018-07-11T18:38:23.615Z,27.04
2018-07-11T18:43:32.245Z,26.97
2018-07-11T18:49:30.837Z,26.64
2018-07-11T18:56:28.921Z,26.48
2018-07-11T19:01:36.231Z,26.67
2018-07-11T19:06:43.302Z,26.71
2018-07-11T19:12:07.504Z,26.85
2018-07-11T19:17:04.542Z,26.68
2018-07-11T19:21:55.886Z,26.68
2018-07-11T19:26:57.324Z,26.74
2018-07-11T19:31:56.503Z,26.60
2018-07-11T19:36:55.701Z,26.58
2018-07-11T19:41:45.611Z,26.54
2018-07-11T19:46:39.954Z,26.62
2018-07-11T19:54:06.051Z,26.39
2018-07-11T19:58:50.297Z,25.90
2018-07-11T20:03:33.875Z,26.17
2018-07-11T20:08:17.711Z,26.21
2018-07-11T20:13:01.341Z,25.85
2018-07-11T20:17:45.339Z,26.02
2018-07-11T20:22:29.475Z,26.08
2018-07-11T20:27:13.139Z,26.25
2018-07-11T20:31:56.943Z,25.92
2018-07-11T20:36:40.684Z,26.11
2018-07-11T20:41:28.101Z,26.10
2018-07-11T20:46:11.756Z,25.84
2018-07-11T20:50:59.980Z,26.07
2018-07-11T20:55:43.664Z,26.09
2018-07-11T21:00:37.927Z,25.68
2018-07-11T21:07:48.213Z,25.54
2018-07-11T21:12:58.990Z,25.93
2018-07-11T21:19:50.573Z,25.97
2018-07-11T21:24:34.178Z,25.83
2018-07-11T21:29:17.881Z,25.74
2018-07-11T21:34:01.408Z,25.64
2018-07-11T21:38:49.578Z,25.50
2018-07-11T21:43:33.024Z,25.59
2018-07-11T21:48:17.530Z,25.47
2018-07-11T21:53:01.148Z,25.22
2018-07-11T21:57:44.889Z,25.27
2018-07-11T22:02:28.377Z,25.11
2018-07-11T22:07:12.002Z,25.27
2018-07-11T22:11:58.979Z,25.37
2018-07-11T22:16:42.657Z,25.44
2018-07-11T22:21:31.461Z,25.33
2018-07-11T22:26:13.285Z,24.97
2018-07-11T22:30:56.105Z,25.24
2018-07-11T22:35:37.985Z,25.18
2018-07-11T22:40:25.630Z,25.11
2018-07-11T22:45:07.340Z,25.18
2018-07-11T22:49:54.520Z,24.84
2018-07-11T22:54:36.354Z,25.03
2018-07-11T22:59:21.315Z,25.16
2018-07-11T23:04:03.169Z,25.25
2018-07-11T23:08:46.201Z,25.27
2018-07-11T23:13:28.052Z,25.28
2018-07-11T23:18:10.215Z,25.17
2018-07-11T23:22:52.067Z,25.16
2018-07-11T23:27:33.930Z,25.17
2018-07-11T23:32:15.842Z,25.15
2018-07-11T23:36:57.630Z,25.04
2018-07-11T23:41:44.840Z,25.03
2018-07-11T23:46:27.361Z,24.97
2018-07-11T23:51:10.218Z,25.04
2018-07-11T23:55:52.050Z,25.11
